sensor_id;sensor_type;location;lat;lon;timestamp;pressure;altitude;pressure_sealevel;temperature;humidity
66430;BME280;53242;51.694;10.006;2023-05-23T00:01:20;99293.22;;;17.70;80.99
66430;BME280;53242;51.694;10.006;2023-05-23T00:03:42;99284.97;;;17.72;80.84
66430;BME280;53242;51.694;10.006;2023-05-23T00:06:05;99291.56;;;17.47;81.77
66430;BME280;53242;51.694;10.006;2023-05-23T00:08:28;99296.41;;;17.50;81.63
66430;BME280;53242;51.694;10.006;2023-05-23T00:10:50;99288.72;;;17.54;81.06
66430;BME280;53242;51.694;10.006;2023-05-23T00:13:13;99292.84;;;17.45;81.84
66430;BME280;53242;51.694;10.006;2023-05-23T00:15:35;99293.66;;;17.45;81.68
66430;BME280;53242;51.694;10.006;2023-05-23T00:17:58;99305.94;;;17.46;81.67
66430;BME280;53242;51.694;10.006;2023-05-23T00:20:22;99295.75;;;17.60;80.55
66430;BME280;53242;51.694;10.006;2023-05-23T00:22:44;99299.41;;;17.37;81.74
66430;BME280;53242;51.694;10.006;2023-05-23T00:25:09;99295.88;;;17.31;81.95
66430;BME280;53242;51.694;10.006;2023-05-23T00:27:32;99295.06;;;17.14;82.91
66430;BME280;53242;51.694;10.006;2023-05-23T00:29:54;99303.44;;;17.39;81.58
66430;BME280;53242;51.694;10.006;2023-05-23T00:32:17;99310.00;;;17.15;82.75
66430;BME280;53242;51.694;10.006;2023-05-23T00:34:39;99313.09;;;17.23;82.63
66430;BME280;53242;51.694;10.006;2023-05-23T00:37:03;99312.03;;;17.07;83.25
66430;BME280;53242;51.694;10.006;2023-05-23T00:39:26;99316.72;;;16.88;84.28
66430;BME280;53242;51.694;10.006;2023-05-23T00:41:49;99320.09;;;17.13;83.60
66430;BME280;53242;51.694;10.006;2023-05-23T00:44:11;99319.22;;;17.07;83.84
66430;BME280;53242;51.694;10.006;2023-05-23T00:46:34;99321.81;;;17.19;82.80
66430;BME280;53242;51.694;10.006;2023-05-23T00:48:57;99310.72;;;17.27;82.65
66430;BME280;53242;51.694;10.006;2023-05-23T00:51:19;99330.22;;;17.45;81.92
66430;BME280;53242;51.694;10.006;2023-05-23T00:53:42;99327.28;;;17.46;81.68
66430;BME280;53242;51.694;10.006;2023-05-23T00:56:04;99322.69;;;17.41;81.87
66430;BME280;53242;51.694;10.006;2023-05-23T00:58:27;99324.28;;;17.42;82.07
66430;BME280;53242;51.694;10.006;2023-05-23T01:00:50;99320.50;;;17.38;82.07
66430;BME280;53242;51.694;10.006;2023-05-23T01:03:15;99311.06;;;17.14;83.21
66430;BME280;53242;51.694;10.006;2023-05-23T01:05:39;99319.94;;;17.19;83.24
66430;BME280;53242;51.694;10.006;2023-05-23T01:08:02;99315.81;;;17.12;83.54
66430;BME280;53242;51.694;10.006;2023-05-23T01:10:26;99316.56;;;17.24;82.95
66430;BME280;53242;51.694;10.006;2023-05-23T01:15:35;99314.31;;;17.16;84.04
66430;BME280;53242;51.694;10.006;2023-05-23T01:18:06;99308.31;;;17.25;82.73
66430;BME280;53242;51.694;10.006;2023-05-23T01:20:34;99303.38;;;17.34;82.77
66430;BME280;53242;51.694;10.006;2023-05-23T01:23:12;99302.75;;;17.44;82.83
66430;BME280;53242;51.694;10.006;2023-05-23T01:26:03;99293.94;;;17.26;83.43
66430;BME280;53242;51.694;10.006;2023-05-23T01:28:37;99302.22;;;17.47;82.13
66430;BME280;53242;51.694;10.006;2023-05-23T01:31:03;99304.72;;;17.54;81.09
66430;BME280;53242;51.694;10.006;2023-05-23T01:33:26;99303.53;;;17.45;81.86
66430;BME280;53242;51.694;10.006;2023-05-23T01:35:49;99314.38;;;17.21;83.11
66430;BME280;53242;51.694;10.006;2023-05-23T01:38:12;99311.06;;;17.31;82.31
66430;BME280;53242;51.694;10.006;2023-05-23T01:40:34;99316.72;;;17.17;82.84
66430;BME280;53242;51.694;10.006;2023-05-23T01:42:57;99316.56;;;17.24;82.67
66430;BME280;53242;51.694;10.006;2023-05-23T01:45:20;99312.34;;;17.28;82.26
66430;BME280;53242;51.694;10.006;2023-05-23T01:47:43;99316.22;;;17.54;81.61
66430;BME280;53242;51.694;10.006;2023-05-23T01:50:08;99316.94;;;17.50;81.65
66430;BME280;53242;51.694;10.006;2023-05-23T01:52:32;99313.63;;;17.25;82.49
66430;BME280;53242;51.694;10.006;2023-05-23T01:54:56;99313.69;;;17.48;81.66
66430;BME280;53242;51.694;10.006;2023-05-23T01:57:18;99310.13;;;17.59;81.14
66430;BME280;53242;51.694;10.006;2023-05-23T01:59:41;99312.81;;;17.59;81.29
66430;BME280;53242;51.694;10.006;2023-05-23T02:02:04;99310.47;;;17.63;80.96
66430;BME280;53242;51.694;10.006;2023-05-23T02:04:27;99315.81;;;17.46;81.93
66430;BME280;53242;51.694;10.006;2023-05-23T02:06:49;99313.84;;;17.58;81.38
66430;BME280;53242;51.694;10.006;2023-05-23T02:09:12;99320.19;;;17.52;81.80
66430;BME280;53242;51.694;10.006;2023-05-23T02:11:34;99315.09;;;17.33;82.67
66430;BME280;53242;51.694;10.006;2023-05-23T02:13:57;99321.41;;;17.27;82.72
66430;BME280;53242;51.694;10.006;2023-05-23T02:16:19;99325.09;;;17.09;84.47
66430;BME280;53242;51.694;10.006;2023-05-23T02:18:42;99321.41;;;17.10;84.23
66430;BME280;53242;51.694;10.006;2023-05-23T02:21:08;99321.72;;;16.97;85.41
66430;BME280;53242;51.694;10.006;2023-05-23T02:23:33;99315.56;;;16.96;85.50
66430;BME280;53242;51.694;10.006;2023-05-23T02:25:55;99320.44;;;16.99;85.58
66430;BME280;53242;51.694;10.006;2023-05-23T02:28:18;99321.50;;;16.69;87.47
66430;BME280;53242;51.694;10.006;2023-05-23T02:30:40;99325.44;;;16.67;88.34
66430;BME280;53242;51.694;10.006;2023-05-23T02:33:06;99323.88;;;16.54;88.99
66430;BME280;53242;51.694;10.006;2023-05-23T02:35:29;99329.19;;;16.54;89.99
66430;BME280;53242;51.694;10.006;2023-05-23T02:37:51;99332.94;;;16.41;90.32
66430;BME280;53242;51.694;10.006;2023-05-23T02:40:14;99337.34;;;16.35;89.94
66430;BME280;53242;51.694;10.006;2023-05-23T02:42:36;99339.78;;;16.37;88.85
66430;BME280;53242;51.694;10.006;2023-05-23T02:44:59;99350.59;;;16.18;88.95
66430;BME280;53242;51.694;10.006;2023-05-23T02:47:21;99356.50;;;16.20;88.66
66430;BME280;53242;51.694;10.006;2023-05-23T02:49:44;99353.06;;;15.96;88.75
66430;BME280;53242;51.694;10.006;2023-05-23T02:52:07;99366.94;;;16.10;87.78
66430;BME280;53242;51.694;10.006;2023-05-23T02:54:29;99366.56;;;16.18;87.50
66430;BME280;53242;51.694;10.006;2023-05-23T02:56:52;99367.03;;;16.03;86.96
66430;BME280;53242;51.694;10.006;2023-05-23T02:59:17;99371.69;;;15.96;86.50
66430;BME280;53242;51.694;10.006;2023-05-23T03:01:39;99373.91;;;15.87;86.49
66430;BME280;53242;51.694;10.006;2023-05-23T03:04:01;99383.38;;;15.83;85.63
66430;BME280;53242;51.694;10.006;2023-05-23T03:06:24;99387.19;;;15.75;84.95
66430;BME280;53242;51.694;10.006;2023-05-23T03:08:48;99393.19;;;15.59;84.10
66430;BME280;53242;51.694;10.006;2023-05-23T03:11:11;99391.91;;;15.73;83.02
66430;BME280;53242;51.694;10.006;2023-05-23T03:13:34;99397.78;;;15.63;83.07
66430;BME280;53242;51.694;10.006;2023-05-23T03:15:57;99404.84;;;15.70;82.97
66430;BME280;53242;51.694;10.006;2023-05-23T03:18:19;99398.50;;;15.59;82.43
66430;BME280;53242;51.694;10.006;2023-05-23T03:20:42;99400.44;;;15.52;81.68
66430;BME280;53242;51.694;10.006;2023-05-23T03:23:04;99397.16;;;15.38;81.79
66430;BME280;53242;51.694;10.006;2023-05-23T03:25:27;99396.53;;;15.66;80.17
66430;BME280;53242;51.694;10.006;2023-05-23T03:27:50;99393.84;;;15.42;81.70
66430;BME280;53242;51.694;10.006;2023-05-23T03:30:12;99402.16;;;15.34;81.64
66430;BME280;53242;51.694;10.006;2023-05-23T03:32:35;99401.47;;;15.51;81.26
66430;BME280;53242;51.694;10.006;2023-05-23T03:34:57;99395.47;;;15.55;80.53
66430;BME280;53242;51.694;10.006;2023-05-23T03:37:20;99402.19;;;15.70;80.39
66430;BME280;53242;51.694;10.006;2023-05-23T03:39:42;99401.03;;;15.77;80.38
66430;BME280;53242;51.694;10.006;2023-05-23T03:42:05;99393.84;;;15.66;80.66
66430;BME280;53242;51.694;10.006;2023-05-23T03:44:28;99397.50;;;15.84;79.96
66430;BME280;53242;51.694;10.006;2023-05-23T03:46:51;99394.00;;;16.07;78.95
66430;BME280;53242;51.694;10.006;2023-05-23T03:49:13;99399.00;;;15.91;79.06
66430;BME280;53242;51.694;10.006;2023-05-23T03:51:36;99393.66;;;15.79;79.72
66430;BME280;53242;51.694;10.006;2023-05-23T03:53:58;99397.34;;;15.78;79.44
66430;BME280;53242;51.694;10.006;2023-05-23T03:56:22;99393.22;;;15.83;79.79
66430;BME280;53242;51.694;10.006;2023-05-23T03:58:44;99399.28;;;15.71;80.42
66430;BME280;53242;51.694;10.006;2023-05-23T04:01:09;99399.69;;;15.99;79.11
66430;BME280;53242;51.694;10.006;2023-05-23T04:03:32;99392.16;;;15.84;79.58
66430;BME280;53242;51.694;10.006;2023-05-23T04:05:54;99396.56;;;16.02;78.57
66430;BME280;53242;51.694;10.006;2023-05-23T04:08:18;99398.53;;;16.06;78.62
66430;BME280;53242;51.694;10.006;2023-05-23T04:10:44;99396.34;;;16.15;78.18
66430;BME280;53242;51.694;10.006;2023-05-23T04:13:06;99404.78;;;16.00;78.77
66430;BME280;53242;51.694;10.006;2023-05-23T04:15:30;99397.25;;;16.09;78.77
66430;BME280;53242;51.694;10.006;2023-05-23T04:18:01;99402.25;;;15.93;79.29
66430;BME280;53242;51.694;10.006;2023-05-23T04:20:24;99403.38;;;16.09;78.92
66430;BME280;53242;51.694;10.006;2023-05-23T04:22:47;99398.41;;;16.13;78.77
66430;BME280;53242;51.694;10.006;2023-05-23T04:25:09;99402.69;;;16.14;78.66
66430;BME280;53242;51.694;10.006;2023-05-23T04:27:39;99405.94;;;15.92;79.66
66430;BME280;53242;51.694;10.006;2023-05-23T04:30:02;99406.03;;;16.21;78.71
66430;BME280;53242;51.694;10.006;2023-05-23T04:32:26;99406.16;;;16.15;78.87
66430;BME280;53242;51.694;10.006;2023-05-23T04:34:48;99409.31;;;16.11;79.23
66430;BME280;53242;51.694;10.006;2023-05-23T04:37:12;99403.03;;;15.94;80.00
66430;BME280;53242;51.694;10.006;2023-05-23T04:39:35;99405.03;;;15.87;80.09
66430;BME280;53242;51.694;10.006;2023-05-23T04:42:16;99411.38;;;15.98;79.54
66430;BME280;53242;51.694;10.006;2023-05-23T04:45:05;99406.72;;;15.69;80.39
66430;BME280;53242;51.694;10.006;2023-05-23T04:47:47;99407.47;;;15.88;79.21
66430;BME280;53242;51.694;10.006;2023-05-23T04:50:21;99406.97;;;15.79;80.08
66430;BME280;53242;51.694;10.006;2023-05-23T04:52:44;99405.94;;;15.92;79.81
66430;BME280;53242;51.694;10.006;2023-05-23T04:55:07;99411.63;;;15.84;80.30
66430;BME280;53242;51.694;10.006;2023-05-23T04:57:31;99410.19;;;15.70;80.85
66430;BME280;53242;51.694;10.006;2023-05-23T04:59:53;99408.78;;;15.79;80.70
66430;BME280;53242;51.694;10.006;2023-05-23T05:02:16;99409.50;;;15.74;80.82
66430;BME280;53242;51.694;10.006;2023-05-23T05:04:39;99416.53;;;15.57;81.78
66430;BME280;53242;51.694;10.006;2023-05-23T05:07:02;99412.72;;;15.53;82.11
66430;BME280;53242;51.694;10.006;2023-05-23T05:09:24;99410.53;;;15.61;81.08
66430;BME280;53242;51.694;10.006;2023-05-23T05:11:47;99423.56;;;15.39;81.76
66430;BME280;53242;51.694;10.006;2023-05-23T05:14:10;99425.22;;;15.22;81.07
66430;BME280;53242;51.694;10.006;2023-05-23T05:16:33;99431.94;;;15.24;80.92
66430;BME280;53242;51.694;10.006;2023-05-23T05:18:56;99427.56;;;15.30;81.05
66430;BME280;53242;51.694;10.006;2023-05-23T05:21:18;99429.56;;;15.46;79.90
66430;BME280;53242;51.694;10.006;2023-05-23T05:23:41;99419.78;;;15.59;79.72
66430;BME280;53242;51.694;10.006;2023-05-23T05:26:05;99424.38;;;15.52;79.83
66430;BME280;53242;51.694;10.006;2023-05-23T05:28:27;99423.56;;;15.39;79.68
66430;BME280;53242;51.694;10.006;2023-05-23T05:30:50;99419.03;;;15.28;79.43
66430;BME280;53242;51.694;10.006;2023-05-23T05:33:16;99420.81;;;15.16;79.11
66430;BME280;53242;51.694;10.006;2023-05-23T05:35:40;99425.97;;;15.41;78.60
66430;BME280;53242;51.694;10.006;2023-05-23T05:38:03;99420.31;;;15.37;78.36
66430;BME280;53242;51.694;10.006;2023-05-23T05:40:26;99422.97;;;15.37;78.08
66430;BME280;53242;51.694;10.006;2023-05-23T05:42:48;99428.81;;;15.27;78.13
66430;BME280;53242;51.694;10.006;2023-05-23T05:45:10;99431.84;;;15.31;78.33
66430;BME280;53242;51.694;10.006;2023-05-23T05:47:34;99438.25;;;15.42;77.62
66430;BME280;53242;51.694;10.006;2023-05-23T05:49:58;99441.31;;;15.27;78.28
66430;BME280;53242;51.694;10.006;2023-05-23T05:52:20;99441.56;;;15.25;78.04
66430;BME280;53242;51.694;10.006;2023-05-23T05:54:43;99443.50;;;15.30;78.27
66430;BME280;53242;51.694;10.006;2023-05-23T05:57:05;99441.09;;;15.28;78.19
66430;BME280;53242;51.694;10.006;2023-05-23T05:59:28;99443.78;;;15.40;78.03
66430;BME280;53242;51.694;10.006;2023-05-23T06:01:51;99442.84;;;15.35;78.35
66430;BME280;53242;51.694;10.006;2023-05-23T06:04:14;99434.97;;;15.28;78.63
66430;BME280;53242;51.694;10.006;2023-05-23T06:06:36;99439.28;;;15.10;79.68
66430;BME280;53242;51.694;10.006;2023-05-23T06:08:58;99446.69;;;15.08;79.48
66430;BME280;53242;51.694;10.006;2023-05-23T06:11:21;99448.09;;;15.11;79.80
66430;BME280;53242;51.694;10.006;2023-05-23T06:13:43;99442.31;;;15.14;79.78
66430;BME280;53242;51.694;10.006;2023-05-23T06:16:06;99446.56;;;15.03;80.20
66430;BME280;53242;51.694;10.006;2023-05-23T06:18:28;99443.31;;;15.01;80.17
66430;BME280;53242;51.694;10.006;2023-05-23T06:20:51;99436.53;;;15.17;79.70
66430;BME280;53242;51.694;10.006;2023-05-23T06:23:16;99429.38;;;15.18;80.05
66430;BME280;53242;51.694;10.006;2023-05-23T06:25:40;99445.78;;;15.15;80.14
66430;BME280;53242;51.694;10.006;2023-05-23T06:28:05;99441.69;;;15.00;80.68
66430;BME280;53242;51.694;10.006;2023-05-23T06:30:28;99449.81;;;15.17;80.21
66430;BME280;53242;51.694;10.006;2023-05-23T06:32:50;99449.81;;;15.17;80.43
66430;BME280;53242;51.694;10.006;2023-05-23T06:35:14;99454.75;;;15.32;79.96
66430;BME280;53242;51.694;10.006;2023-05-23T06:37:36;99447.34;;;15.04;80.97
66430;BME280;53242;51.694;10.006;2023-05-23T06:39:58;99448.16;;;15.04;80.94
66430;BME280;53242;51.694;10.006;2023-05-23T06:42:21;99443.13;;;15.15;80.95
66430;BME280;53242;51.694;10.006;2023-05-23T06:45:03;99442.69;;;15.18;80.91
66430;BME280;53242;51.694;10.006;2023-05-23T06:47:27;99438.63;;;15.15;81.22
66430;BME280;53242;51.694;10.006;2023-05-23T06:49:50;99443.94;;;15.15;81.11
66430;BME280;53242;51.694;10.006;2023-05-23T06:52:12;99446.97;;;15.19;81.35
66430;BME280;53242;51.694;10.006;2023-05-23T06:54:35;99445.06;;;15.07;81.97
66430;BME280;53242;51.694;10.006;2023-05-23T06:56:57;99440.19;;;15.35;80.34
66430;BME280;53242;51.694;10.006;2023-05-23T06:59:20;99439.19;;;15.17;81.55
66430;BME280;53242;51.694;10.006;2023-05-23T07:01:43;99443.75;;;15.28;81.17
66430;BME280;53242;51.694;10.006;2023-05-23T07:04:07;99451.34;;;15.25;81.49
66430;BME280;53242;51.694;10.006;2023-05-23T07:06:30;99451.75;;;14.98;83.37
66430;BME280;53242;51.694;10.006;2023-05-23T07:08:53;99445.63;;;15.09;83.08
66430;BME280;53242;51.694;10.006;2023-05-23T07:11:17;99452.31;;;15.00;84.01
66430;BME280;53242;51.694;10.006;2023-05-23T07:13:44;99442.84;;;15.04;84.37
66430;BME280;53242;51.694;10.006;2023-05-23T07:16:15;99449.03;;;15.17;83.59
66430;BME280;53242;51.694;10.006;2023-05-23T07:18:49;99448.53;;;15.08;84.23
66430;BME280;53242;51.694;10.006;2023-05-23T07:21:11;99439.06;;;15.12;84.50
66430;BME280;53242;51.694;10.006;2023-05-23T07:23:34;99444.06;;;15.20;84.14
66430;BME280;53242;51.694;10.006;2023-05-23T07:25:57;99442.34;;;15.26;83.85
66430;BME280;53242;51.694;10.006;2023-05-23T07:28:22;99438.75;;;15.20;84.00
66430;BME280;53242;51.694;10.006;2023-05-23T07:30:44;99440.91;;;15.42;83.12
66430;BME280;53242;51.694;10.006;2023-05-23T07:33:07;99434.88;;;15.35;83.99
66430;BME280;53242;51.694;10.006;2023-05-23T07:35:30;99439.03;;;15.31;84.04
66430;BME280;53242;51.694;10.006;2023-05-23T07:37:53;99436.03;;;15.39;83.34
66430;BME280;53242;51.694;10.006;2023-05-23T07:40:16;99440.19;;;15.35;83.32
66430;BME280;53242;51.694;10.006;2023-05-23T07:42:38;99438.81;;;15.44;83.11
66430;BME280;53242;51.694;10.006;2023-05-23T07:45:01;99446.78;;;15.32;83.56
66430;BME280;53242;51.694;10.006;2023-05-23T07:47:23;99447.09;;;15.24;83.69
66430;BME280;53242;51.694;10.006;2023-05-23T07:49:46;99451.88;;;15.45;83.30
66430;BME280;53242;51.694;10.006;2023-05-23T07:52:09;99463.44;;;15.39;84.21
66430;BME280;53242;51.694;10.006;2023-05-23T07:54:33;99455.69;;;15.38;84.82
66430;BME280;53242;51.694;10.006;2023-05-23T07:56:57;99453.59;;;15.09;86.40
66430;BME280;53242;51.694;10.006;2023-05-23T07:59:20;99461.72;;;15.15;86.72
66430;BME280;53242;51.694;10.006;2023-05-23T08:01:45;99449.53;;;15.25;86.65
66430;BME280;53242;51.694;10.006;2023-05-23T08:04:14;99458.13;;;15.09;88.45
66430;BME280;53242;51.694;10.006;2023-05-23T08:06:42;99464.22;;;15.28;86.93
66430;BME280;53242;51.694;10.006;2023-05-23T08:09:08;99463.09;;;15.36;86.54
66430;BME280;53242;51.694;10.006;2023-05-23T08:11:35;99461.41;;;15.23;86.91
66430;BME280;53242;51.694;10.006;2023-05-23T08:13:57;99469.56;;;15.09;87.70
66430;BME280;53242;51.694;10.006;2023-05-23T08:16:34;99467.41;;;15.18;87.75
66430;BME280;53242;51.694;10.006;2023-05-23T08:18:56;99478.00;;;15.06;88.14
66430;BME280;53242;51.694;10.006;2023-05-23T08:21:19;99473.88;;;15.22;87.14
66430;BME280;53242;51.694;10.006;2023-05-23T08:23:41;99484.88;;;15.26;86.75
66430;BME280;53242;51.694;10.006;2023-05-23T08:26:03;99482.19;;;15.14;86.79
66430;BME280;53242;51.694;10.006;2023-05-23T08:28:27;99492.22;;;15.12;87.17
66430;BME280;53242;51.694;10.006;2023-05-23T08:30:50;99497.50;;;15.00;86.83
66430;BME280;53242;51.694;10.006;2023-05-23T08:33:13;99505.91;;;14.97;87.21
66430;BME280;53242;51.694;10.006;2023-05-23T08:35:38;99503.63;;;15.01;86.50
66430;BME280;53242;51.694;10.006;2023-05-23T08:38:05;99513.81;;;14.85;86.89
66430;BME280;53242;51.694;10.006;2023-05-23T08:40:30;99517.88;;;14.88;86.72
66430;BME280;53242;51.694;10.006;2023-05-23T08:43:01;99516.13;;;14.82;86.62
66430;BME280;53242;51.694;10.006;2023-05-23T08:45:23;99511.31;;;14.72;86.75
66430;BME280;53242;51.694;10.006;2023-05-23T08:47:46;99529.78;;;14.60;87.07
66430;BME280;53242;51.694;10.006;2023-05-23T08:50:11;99531.22;;;14.81;86.19
66430;BME280;53242;51.694;10.006;2023-05-23T08:52:36;99532.94;;;14.75;86.78
66430;BME280;53242;51.694;10.006;2023-05-23T08:55:03;99527.09;;;14.67;87.60
66430;BME280;53242;51.694;10.006;2023-05-23T08:57:27;99538.75;;;14.66;88.41
66430;BME280;53242;51.694;10.006;2023-05-23T08:59:56;99546.19;;;14.57;89.28
66430;BME280;53242;51.694;10.006;2023-05-23T09:02:19;99547.97;;;14.38;90.41
66430;BME280;53242;51.694;10.006;2023-05-23T09:04:44;99549.84;;;14.56;90.01
66430;BME280;53242;51.694;10.006;2023-05-23T09:07:10;99551.22;;;14.40;90.75
66430;BME280;53242;51.694;10.006;2023-05-23T09:09:34;99555.34;;;14.36;90.76
66430;BME280;53242;51.694;10.006;2023-05-23T09:11:58;99554.09;;;14.38;89.73
66430;BME280;53242;51.694;10.006;2023-05-23T09:14:22;99557.94;;;14.42;89.35
66430;BME280;53242;51.694;10.006;2023-05-23T09:16:46;99559.50;;;14.50;89.13
66430;BME280;53242;51.694;10.006;2023-05-23T09:19:13;99565.03;;;14.48;89.23
66430;BME280;53242;51.694;10.006;2023-05-23T09:21:44;99570.09;;;14.31;89.68
66430;BME280;53242;51.694;10.006;2023-05-23T09:24:34;99571.34;;;14.29;89.40
66430;BME280;53242;51.694;10.006;2023-05-23T09:26:58;99578.59;;;14.40;89.39
66430;BME280;53242;51.694;10.006;2023-05-23T09:29:20;99579.50;;;14.27;89.29
66430;BME280;53242;51.694;10.006;2023-05-23T09:31:43;99579.94;;;14.24;89.40
66430;BME280;53242;51.694;10.006;2023-05-23T09:34:05;99580.69;;;14.31;89.71
66430;BME280;53242;51.694;10.006;2023-05-23T09:36:31;99586.19;;;14.05;90.12
66430;BME280;53242;51.694;10.006;2023-05-23T09:38:56;99595.84;;;13.99;90.27
66430;BME280;53242;51.694;10.006;2023-05-23T09:41:19;99598.84;;;14.09;90.09
66430;BME280;53242;51.694;10.006;2023-05-23T09:46:12;99610.56;;;13.95;89.87
66430;BME280;53242;51.694;10.006;2023-05-23T09:48:34;99612.78;;;13.98;89.35
66430;BME280;53242;51.694;10.006;2023-05-23T09:50:57;99606.75;;;13.84;89.92
66430;BME280;53242;51.694;10.006;2023-05-23T09:53:20;99614.13;;;13.82;89.66
66430;BME280;53242;51.694;10.006;2023-05-23T09:55:43;99614.38;;;13.67;90.25
66430;BME280;53242;51.694;10.006;2023-05-23T09:58:06;99618.69;;;13.68;90.29
66430;BME280;53242;51.694;10.006;2023-05-23T10:00:30;99615.41;;;13.66;90.38
66430;BME280;53242;51.694;10.006;2023-05-23T10:05:48;99643.63;;;13.54;91.35
66430;BME280;53242;51.694;10.006;2023-05-23T10:13:35;99642.84;;;13.40;89.83
66430;BME280;53242;51.694;10.006;2023-05-23T10:16:03;99648.56;;;13.43;89.97
66430;BME280;53242;51.694;10.006;2023-05-23T10:18:28;99637.16;;;13.29;90.33
66430;BME280;53242;51.694;10.006;2023-05-23T10:20:53;99654.28;;;13.27;90.78
66430;BME280;53242;51.694;10.006;2023-05-23T10:23:17;99649.38;;;13.30;90.49
66430;BME280;53242;51.694;10.006;2023-05-23T10:25:40;99645.75;;;13.11;89.15
66430;BME280;53242;51.694;10.006;2023-05-23T10:28:03;99654.50;;;13.25;88.54
66430;BME280;53242;51.694;10.006;2023-05-23T10:30:26;99648.56;;;13.43;87.57
66430;BME280;53242;51.694;10.006;2023-05-23T10:32:49;99657.97;;;13.19;87.42
66430;BME280;53242;51.694;10.006;2023-05-23T10:35:24;99659.91;;;13.57;86.19
66430;BME280;53242;51.694;10.006;2023-05-23T10:37:56;99657.16;;;13.19;86.86
66430;BME280;53242;51.694;10.006;2023-05-23T10:40:36;99659.75;;;13.45;85.69
66430;BME280;53242;51.694;10.006;2023-05-23T10:43:12;99669.38;;;13.20;87.01
66430;BME280;53242;51.694;10.006;2023-05-23T10:45:41;99667.94;;;13.24;86.80
66430;BME280;53242;51.694;10.006;2023-05-23T10:48:19;99678.53;;;13.24;87.33
66430;BME280;53242;51.694;10.006;2023-05-23T10:50:42;99679.97;;;13.40;86.95
66430;BME280;53242;51.694;10.006;2023-05-23T10:53:04;99678.56;;;13.37;87.79
66430;BME280;53242;51.694;10.006;2023-05-23T10:55:31;99684.47;;;13.12;88.28
66430;BME280;53242;51.694;10.006;2023-05-23T10:58:19;99685.47;;;13.25;88.06
66430;BME280;53242;51.694;10.006;2023-05-23T11:01:04;99684.91;;;12.96;88.37
66430;BME280;53242;51.694;10.006;2023-05-23T11:03:49;99684.09;;;13.09;87.38
66430;BME280;53242;51.694;10.006;2023-05-23T11:08:49;99693.88;;;12.88;88.39
66430;BME280;53242;51.694;10.006;2023-05-23T11:11:22;99698.53;;;12.99;87.99
66430;BME280;53242;51.694;10.006;2023-05-23T11:13:55;99693.66;;;12.96;88.20
66430;BME280;53242;51.694;10.006;2023-05-23T11:16:30;99698.97;;;12.83;88.53
66430;BME280;53242;51.694;10.006;2023-05-23T11:21:40;99710.38;;;12.83;87.98
66430;BME280;53242;51.694;10.006;2023-05-23T11:24:04;99713.22;;;13.09;87.17
66430;BME280;53242;51.694;10.006;2023-05-23T11:26:30;99718.31;;;13.10;86.91
66430;BME280;53242;51.694;10.006;2023-05-23T11:28:59;99705.47;;;13.00;87.11
66430;BME280;53242;51.694;10.006;2023-05-23T11:31:24;99700.38;;;12.99;86.98
66430;BME280;53242;51.694;10.006;2023-05-23T11:33:49;99714.84;;;12.96;87.08
66430;BME280;53242;51.694;10.006;2023-05-23T11:36:12;99719.16;;;12.97;86.80
66430;BME280;53242;51.694;10.006;2023-05-23T11:38:34;99712.81;;;13.05;86.44
66430;BME280;53242;51.694;10.006;2023-05-23T11:40:59;99710.16;;;13.19;86.19
66430;BME280;53242;51.694;10.006;2023-05-23T11:43:21;99711.59;;;12.94;87.05
66430;BME280;53242;51.694;10.006;2023-05-23T11:45:43;99721.38;;;12.94;87.18
66430;BME280;53242;51.694;10.006;2023-05-23T11:48:11;99721.97;;;13.09;86.91
66430;BME280;53242;51.694;10.006;2023-05-23T11:50:46;99721.38;;;13.00;87.33
66430;BME280;53242;51.694;10.006;2023-05-23T11:53:09;99733.19;;;12.91;88.24
66430;BME280;53242;51.694;10.006;2023-05-23T11:55:31;99731.19;;;12.93;88.20
66430;BME280;53242;51.694;10.006;2023-05-23T11:57:55;99737.69;;;12.91;88.06
66430;BME280;53242;51.694;10.006;2023-05-23T12:00:18;99741.34;;;12.96;87.90
66430;BME280;53242;51.694;10.006;2023-05-23T12:02:41;99749.50;;;12.81;88.08
66430;BME280;53242;51.694;10.006;2023-05-23T12:05:09;99737.06;;;12.75;88.08
66430;BME280;53242;51.694;10.006;2023-05-23T12:07:32;99751.31;;;12.88;87.78
66430;BME280;53242;51.694;10.006;2023-05-23T12:09:55;99758.44;;;12.67;88.02
66430;BME280;53242;51.694;10.006;2023-05-23T12:12:18;99754.59;;;12.90;86.67
66430;BME280;53242;51.694;10.006;2023-05-23T12:14:41;99749.50;;;12.88;86.11
66430;BME280;53242;51.694;10.006;2023-05-23T12:17:07;99760.91;;;12.82;86.38
66430;BME280;53242;51.694;10.006;2023-05-23T12:19:29;99758.06;;;12.83;85.86
66430;BME280;53242;51.694;10.006;2023-05-23T12:21:52;99767.44;;;12.73;85.97
66430;BME280;53242;51.694;10.006;2023-05-23T12:24:21;99766.00;;;12.70;86.06
66430;BME280;53242;51.694;10.006;2023-05-23T12:26:49;99773.13;;;12.76;85.26
66430;BME280;53242;51.694;10.006;2023-05-23T12:29:11;99754.16;;;12.59;85.68
66430;BME280;53242;51.694;10.006;2023-05-23T12:31:34;99779.00;;;12.58;85.52
66430;BME280;53242;51.694;10.006;2023-05-23T12:33:56;99791.41;;;12.58;86.18
66430;BME280;53242;51.694;10.006;2023-05-23T12:36:26;99795.09;;;12.63;86.19
66430;BME280;53242;51.694;10.006;2023-05-23T12:38:48;99803.03;;;12.57;86.79
66430;BME280;53242;51.694;10.006;2023-05-23T12:41:15;99798.75;;;12.56;86.69
66430;BME280;53242;51.694;10.006;2023-05-23T12:43:39;99808.09;;;12.45;86.45
66430;BME280;53242;51.694;10.006;2023-05-23T12:46:02;99798.31;;;12.45;86.22
66430;BME280;53242;51.694;10.006;2023-05-23T12:48:24;99813.22;;;12.60;85.54
66430;BME280;53242;51.694;10.006;2023-05-23T12:50:46;99809.50;;;12.41;86.07
66430;BME280;53242;51.694;10.006;2023-05-23T12:53:09;99822.66;;;12.27;86.72
66430;BME280;53242;51.694;10.006;2023-05-23T12:55:31;99826.97;;;12.35;86.75